メインページ
METAR-TAF:

METAR-TAF

空港 :

ハリファックス, ノバスコシア州, カナダ

ハリファックス・ロバート・L・スタンフィールド国際空港

緯度: 44-53N, 経度: 063-30W, 海抜: 145m

現時点の気象観測

当レポートは22分前の13:00(UTC)に作成
の風 4kt、北/北西からの間で変化する
気温 17°C
湿度 94%
気圧 1020 hPa
視程: 24.1km
高度1000ftの雲はほとんどない
高度3300ftの雲はほとんどない
高度20000ftの千切れ雲あり
高度25000ftの千切れ雲あり

METAR: CYHZ 251300Z 01004KT 330V080 15SM FEW010 FEW033 BKN200 BKN250 17/16 A3012 RMK CF1SC2CI3CI2 CF TR SLP201 DENSITY ALT 700FT

時間: 10:22 (13:22 UTC)

予報

当レポートは1時間44分前の11:38(UTC)に作成
予報は25日の 12時(UTC)から 26日の 12時(UTC)まで有効
変向風 3kt
視程: 10km
高度4000ftの千切れ雲あり
25日の 12時(UTC)から 25日の 13時(UTC)まで一時的に
視程: 10km
高度2000ftの千切れ雲あり
高度4000ftの曇り
弱いにわか雨
25日の 16時(UTC)から 25日の 18時(UTC)まで徐々に
の風 10kt
25日の 2200時(UTC)から
の風 10kt
視程: 10km
高度2000ftの雲はほとんどない
高度6000ftの雲は散在している
26日の 0200時(UTC)から
南/南西の風 6kt
視程: 10km
晴天
確率 30%
26日の 02時(UTC)から 26日の 12時(UTC)まで
視程: 0.8km
高度200ftの

TAF: CYHZ 251138Z 2512/2612 VRB03KT P6SM BKN040 TEMPO 2512/2513 P6SM -SHRA BKN020 OVC040 BECMG 2516/2518 17010KT FM252200 17010KT P6SM FEW020 SCT060 FM260200 20006KT P6SM SKC PROB30 2602/2612 1/2SM FG VV002 RMK NXT FCST BY 251500Z

4,000以上の空港の気象観測と天気予報(METAR報とTAF報)

利用可能な観測所は地図上に黄色い丸と赤い丸で示す。

丸の上にカーソルを重ねると観測所名を参照できる。

次にクリックすると気象観測と天気予報を参照できる。

マップの切り替え:黒色「×」印の緑ボタンをクリックして拡大、「-」印の緑ボタンをクリックして縮小、緑色の三角印をクリックして隣りの地図に切り替え


METAR-TAF: